sensor_id;sensor_type;location;lat;lon;timestamp;P1;durP1;ratioP1;P2;durP2;ratioP2
75506;SDS011;64086;43.220;27.878;2022-11-15T00:01:22;11.25;;;6.72;;
75506;SDS011;64086;43.220;27.878;2022-11-15T00:03:50;10.07;;;5.95;;
75506;SDS011;64086;43.220;27.878;2022-11-15T00:06:16;11.73;;;6.55;;
75506;SDS011;64086;43.220;27.878;2022-11-15T00:08:41;10.10;;;6.55;;
75506;SDS011;64086;43.220;27.878;2022-11-15T00:11:08;8.90;;;6.30;;
75506;SDS011;64086;43.220;27.878;2022-11-15T00:13:35;9.30;;;5.45;;
75506;SDS011;64086;43.220;27.878;2022-11-15T00:16:01;8.45;;;5.43;;
75506;SDS011;64086;43.220;27.878;2022-11-15T00:18:27;8.13;;;5.53;;
75506;SDS011;64086;43.220;27.878;2022-11-15T00:20:52;10.10;;;5.55;;
75506;SDS011;64086;43.220;27.878;2022-11-15T00:23:18;8.88;;;5.30;;
75506;SDS011;64086;43.220;27.878;2022-11-15T00:25:43;8.65;;;5.13;;
75506;SDS011;64086;43.220;27.878;2022-11-15T00:28:09;7.72;;;5.13;;
75506;SDS011;64086;43.220;27.878;2022-11-15T00:30:34;7.78;;;5.15;;
75506;SDS011;64086;43.220;27.878;2022-11-15T00:33:03;9.00;;;5.32;;
75506;SDS011;64086;43.220;27.878;2022-11-15T00:35:31;8.95;;;4.82;;
75506;SDS011;64086;43.220;27.878;2022-11-15T00:37:57;9.38;;;5.30;;
75506;SDS011;64086;43.220;27.878;2022-11-15T00:40:23;8.13;;;4.95;;
75506;SDS011;64086;43.220;27.878;2022-11-15T00:42:48;8.52;;;5.50;;
75506;SDS011;64086;43.220;27.878;2022-11-15T00:45:14;7.57;;;4.97;;
75506;SDS011;64086;43.220;27.878;2022-11-15T00:47:39;7.32;;;5.10;;
75506;SDS011;64086;43.220;27.878;2022-11-15T00:50:05;7.65;;;4.82;;
75506;SDS011;64086;43.220;27.878;2022-11-15T00:52:30;6.95;;;4.45;;
75506;SDS011;64086;43.220;27.878;2022-11-15T00:54:56;8.77;;;5.55;;
75506;SDS011;64086;43.220;27.878;2022-11-15T00:57:21;8.32;;;5.28;;
75506;SDS011;64086;43.220;27.878;2022-11-15T00:59:46;7.85;;;5.15;;
75506;SDS011;64086;43.220;27.878;2022-11-15T01:02:12;6.82;;;4.78;;
75506;SDS011;64086;43.220;27.878;2022-11-15T01:04:37;7.10;;;4.35;;
75506;SDS011;64086;43.220;27.878;2022-11-15T01:07:03;8.05;;;5.07;;
75506;SDS011;64086;43.220;27.878;2022-11-15T01:09:28;6.88;;;4.60;;
75506;SDS011;64086;43.220;27.878;2022-11-15T01:11:53;11.18;;;5.40;;
75506;SDS011;64086;43.220;27.878;2022-11-15T01:14:19;9.57;;;5.00;;
75506;SDS011;64086;43.220;27.878;2022-11-15T01:16:44;7.28;;;5.32;;
75506;SDS011;64086;43.220;27.878;2022-11-15T01:19:10;7.75;;;4.63;;
75506;SDS011;64086;43.220;27.878;2022-11-15T01:21:35;7.72;;;5.07;;
75506;SDS011;64086;43.220;27.878;2022-11-15T01:24:00;6.90;;;4.53;;
75506;SDS011;64086;43.220;27.878;2022-11-15T01:26:26;7.40;;;4.60;;
75506;SDS011;64086;43.220;27.878;2022-11-15T01:28:51;8.70;;;4.75;;
75506;SDS011;64086;43.220;27.878;2022-11-15T01:31:18;7.25;;;4.65;;
75506;SDS011;64086;43.220;27.878;2022-11-15T01:33:44;6.40;;;4.57;;
75506;SDS011;64086;43.220;27.878;2022-11-15T01:36:14;7.00;;;5.13;;
75506;SDS011;64086;43.220;27.878;2022-11-15T01:38:44;7.93;;;4.63;;
75506;SDS011;64086;43.220;27.878;2022-11-15T01:41:16;7.82;;;4.53;;
75506;SDS011;64086;43.220;27.878;2022-11-15T01:43:43;8.07;;;4.70;;
75506;SDS011;64086;43.220;27.878;2022-11-15T01:46:21;7.80;;;4.90;;
75506;SDS011;64086;43.220;27.878;2022-11-15T01:48:55;8.20;;;4.93;;
75506;SDS011;64086;43.220;27.878;2022-11-15T01:51:23;8.55;;;5.40;;
75506;SDS011;64086;43.220;27.878;2022-11-15T01:53:50;6.75;;;4.80;;
75506;SDS011;64086;43.220;27.878;2022-11-15T01:56:19;6.57;;;4.40;;
75506;SDS011;64086;43.220;27.878;2022-11-15T01:58:48;6.78;;;4.85;;
75506;SDS011;64086;43.220;27.878;2022-11-15T02:01:14;6.57;;;4.32;;
75506;SDS011;64086;43.220;27.878;2022-11-15T02:03:42;7.10;;;5.07;;
75506;SDS011;64086;43.220;27.878;2022-11-15T02:06:11;6.82;;;4.55;;
75506;SDS011;64086;43.220;27.878;2022-11-15T02:08:37;8.18;;;4.95;;
75506;SDS011;64086;43.220;27.878;2022-11-15T02:11:04;6.40;;;4.32;;
75506;SDS011;64086;43.220;27.878;2022-11-15T02:13:32;6.32;;;4.38;;
75506;SDS011;64086;43.220;27.878;2022-11-15T02:18:55;6.28;;;4.40;;
75506;SDS011;64086;43.220;27.878;2022-11-15T02:21:43;6.95;;;4.15;;
75506;SDS011;64086;43.220;27.878;2022-11-15T02:24:25;5.25;;;3.60;;
75506;SDS011;64086;43.220;27.878;2022-11-15T02:32:48;5.80;;;4.28;;
75506;SDS011;64086;43.220;27.878;2022-11-15T02:35:22;6.00;;;3.72;;
75506;SDS011;64086;43.220;27.878;2022-11-15T02:37:52;6.10;;;4.25;;
75506;SDS011;64086;43.220;27.878;2022-11-15T02:43:10;5.43;;;3.97;;
75506;SDS011;64086;43.220;27.878;2022-11-15T02:46:01;7.43;;;4.22;;
75506;SDS011;64086;43.220;27.878;2022-11-15T02:48:33;7.60;;;4.60;;
75506;SDS011;64086;43.220;27.878;2022-11-15T02:50:59;5.82;;;3.80;;
75506;SDS011;64086;43.220;27.878;2022-11-15T02:53:25;5.97;;;3.70;;
75506;SDS011;64086;43.220;27.878;2022-11-15T02:55:51;6.30;;;3.80;;
75506;SDS011;64086;43.220;27.878;2022-11-15T03:03:33;6.10;;;4.03;;
75506;SDS011;64086;43.220;27.878;2022-11-15T03:06:28;6.20;;;4.20;;
75506;SDS011;64086;43.220;27.878;2022-11-15T03:08:57;6.25;;;3.95;;
75506;SDS011;64086;43.220;27.878;2022-11-15T03:11:25;5.55;;;3.78;;
75506;SDS011;64086;43.220;27.878;2022-11-15T03:19:10;6.28;;;4.03;;
75506;SDS011;64086;43.220;27.878;2022-11-15T03:21:39;5.80;;;3.80;;
75506;SDS011;64086;43.220;27.878;2022-11-15T03:24:05;6.30;;;4.10;;
75506;SDS011;64086;43.220;27.878;2022-11-15T03:26:32;6.70;;;4.28;;
75506;SDS011;64086;43.220;27.878;2022-11-15T03:29:00;5.25;;;3.80;;
75506;SDS011;64086;43.220;27.878;2022-11-15T03:31:29;5.38;;;3.50;;
75506;SDS011;64086;43.220;27.878;2022-11-15T03:34:14;6.28;;;4.13;;
75506;SDS011;64086;43.220;27.878;2022-11-15T03:36:44;5.97;;;3.92;;
75506;SDS011;64086;43.220;27.878;2022-11-15T03:39:10;5.43;;;3.53;;
75506;SDS011;64086;43.220;27.878;2022-11-15T03:41:46;5.72;;;4.22;;
75506;SDS011;64086;43.220;27.878;2022-11-15T03:44:24;6.35;;;3.63;;
75506;SDS011;64086;43.220;27.878;2022-11-15T03:47:21;5.75;;;3.80;;
75506;SDS011;64086;43.220;27.878;2022-11-15T03:50:37;7.25;;;3.83;;
75506;SDS011;64086;43.220;27.878;2022-11-15T03:52:44;5.95;;;3.47;;
75506;SDS011;64086;43.220;27.878;2022-11-15T03:55:13;6.28;;;3.47;;
75506;SDS011;64086;43.220;27.878;2022-11-15T03:57:40;6.05;;;3.65;;
75506;SDS011;64086;43.220;27.878;2022-11-15T04:00:06;7.20;;;4.03;;
75506;SDS011;64086;43.220;27.878;2022-11-15T04:02:32;7.22;;;4.40;;
75506;SDS011;64086;43.220;27.878;2022-11-15T04:04:58;6.55;;;4.22;;
75506;SDS011;64086;43.220;27.878;2022-11-15T04:07:23;5.82;;;3.80;;
75506;SDS011;64086;43.220;27.878;2022-11-15T04:09:48;6.70;;;3.72;;
75506;SDS011;64086;43.220;27.878;2022-11-15T04:12:33;6.60;;;3.92;;
75506;SDS011;64086;43.220;27.878;2022-11-15T04:15:06;7.00;;;4.15;;
75506;SDS011;64086;43.220;27.878;2022-11-15T04:17:41;5.65;;;3.85;;
75506;SDS011;64086;43.220;27.878;2022-11-15T04:23:02;6.13;;;3.95;;
75506;SDS011;64086;43.220;27.878;2022-11-15T04:25:49;5.70;;;3.67;;
75506;SDS011;64086;43.220;27.878;2022-11-15T04:28:16;6.70;;;4.30;;
75506;SDS011;64086;43.220;27.878;2022-11-15T04:30:41;7.57;;;4.32;;
75506;SDS011;64086;43.220;27.878;2022-11-15T04:33:07;7.03;;;4.47;;
75506;SDS011;64086;43.220;27.878;2022-11-15T04:35:32;6.28;;;4.47;;
75506;SDS011;64086;43.220;27.878;2022-11-15T04:37:58;6.78;;;3.97;;
75506;SDS011;64086;43.220;27.878;2022-11-15T04:40:24;6.78;;;4.30;;
75506;SDS011;64086;43.220;27.878;2022-11-15T04:42:49;6.70;;;4.45;;
75506;SDS011;64086;43.220;27.878;2022-11-15T04:45:14;7.40;;;4.40;;
75506;SDS011;64086;43.220;27.878;2022-11-15T04:47:42;7.63;;;4.55;;
75506;SDS011;64086;43.220;27.878;2022-11-15T04:50:08;7.28;;;4.20;;
75506;SDS011;64086;43.220;27.878;2022-11-15T04:52:37;8.02;;;4.43;;
75506;SDS011;64086;43.220;27.878;2022-11-15T04:55:03;6.88;;;4.72;;
75506;SDS011;64086;43.220;27.878;2022-11-15T04:57:28;7.28;;;4.72;;
75506;SDS011;64086;43.220;27.878;2022-11-15T04:59:54;7.13;;;4.93;;
75506;SDS011;64086;43.220;27.878;2022-11-15T05:02:19;8.15;;;4.93;;
75506;SDS011;64086;43.220;27.878;2022-11-15T05:04:45;7.50;;;4.88;;
75506;SDS011;64086;43.220;27.878;2022-11-15T05:07:10;7.40;;;4.72;;
75506;SDS011;64086;43.220;27.878;2022-11-15T05:09:36;8.75;;;4.65;;
75506;SDS011;64086;43.220;27.878;2022-11-15T05:12:01;7.85;;;5.10;;
75506;SDS011;64086;43.220;27.878;2022-11-15T05:14:26;7.65;;;5.38;;
75506;SDS011;64086;43.220;27.878;2022-11-15T05:16:55;7.53;;;5.18;;
75506;SDS011;64086;43.220;27.878;2022-11-15T05:19:20;8.48;;;5.05;;
75506;SDS011;64086;43.220;27.878;2022-11-15T05:21:46;8.10;;;4.93;;
75506;SDS011;64086;43.220;27.878;2022-11-15T05:24:12;7.28;;;4.63;;
75506;SDS011;64086;43.220;27.878;2022-11-15T05:26:37;6.70;;;4.82;;
75506;SDS011;64086;43.220;27.878;2022-11-15T05:29:03;7.63;;;5.30;;
75506;SDS011;64086;43.220;27.878;2022-11-15T05:31:28;8.30;;;5.53;;
75506;SDS011;64086;43.220;27.878;2022-11-15T05:33:54;7.43;;;5.20;;
75506;SDS011;64086;43.220;27.878;2022-11-15T05:39:06;8.88;;;5.13;;
75506;SDS011;64086;43.220;27.878;2022-11-15T05:41:34;8.18;;;5.38;;
75506;SDS011;64086;43.220;27.878;2022-11-15T05:44:03;7.70;;;5.40;;
75506;SDS011;64086;43.220;27.878;2022-11-15T05:46:31;8.88;;;5.32;;
75506;SDS011;64086;43.220;27.878;2022-11-15T05:48:57;8.35;;;5.18;;
75506;SDS011;64086;43.220;27.878;2022-11-15T05:51:23;8.85;;;5.35;;
75506;SDS011;64086;43.220;27.878;2022-11-15T05:53:49;7.60;;;4.85;;
75506;SDS011;64086;43.220;27.878;2022-11-15T05:56:15;10.52;;;5.97;;
75506;SDS011;64086;43.220;27.878;2022-11-15T05:58:41;9.18;;;5.60;;
75506;SDS011;64086;43.220;27.878;2022-11-15T06:01:07;8.55;;;6.05;;
75506;SDS011;64086;43.220;27.878;2022-11-15T06:03:33;9.90;;;5.30;;
75506;SDS011;64086;43.220;27.878;2022-11-15T06:05:58;9.85;;;6.30;;
75506;SDS011;64086;43.220;27.878;2022-11-15T06:08:24;8.40;;;5.60;;
75506;SDS011;64086;43.220;27.878;2022-11-15T06:10:49;9.55;;;5.47;;
75506;SDS011;64086;43.220;27.878;2022-11-15T06:13:14;8.43;;;5.13;;
75506;SDS011;64086;43.220;27.878;2022-11-15T06:15:40;7.22;;;4.72;;
75506;SDS011;64086;43.220;27.878;2022-11-15T06:18:05;10.70;;;5.60;;
75506;SDS011;64086;43.220;27.878;2022-11-15T06:20:31;8.10;;;5.63;;
75506;SDS011;64086;43.220;27.878;2022-11-15T06:23:00;10.00;;;6.25;;
75506;SDS011;64086;43.220;27.878;2022-11-15T06:25:26;10.15;;;6.50;;
75506;SDS011;64086;43.220;27.878;2022-11-15T06:27:53;10.73;;;5.47;;
75506;SDS011;64086;43.220;27.878;2022-11-15T06:30:20;8.93;;;6.07;;
75506;SDS011;64086;43.220;27.878;2022-11-15T06:32:46;7.47;;;4.80;;
75506;SDS011;64086;43.220;27.878;2022-11-15T06:35:11;9.02;;;5.15;;
75506;SDS011;64086;43.220;27.878;2022-11-15T06:37:38;9.40;;;5.18;;
75506;SDS011;64086;43.220;27.878;2022-11-15T06:40:03;11.45;;;6.28;;
75506;SDS011;64086;43.220;27.878;2022-11-15T06:42:29;9.43;;;5.95;;
75506;SDS011;64086;43.220;27.878;2022-11-15T06:44:55;7.60;;;5.13;;
75506;SDS011;64086;43.220;27.878;2022-11-15T06:47:20;9.18;;;5.38;;
75506;SDS011;64086;43.220;27.878;2022-11-15T06:49:45;8.75;;;4.95;;
75506;SDS011;64086;43.220;27.878;2022-11-15T06:52:11;8.52;;;6.07;;
75506;SDS011;64086;43.220;27.878;2022-11-15T06:54:36;6.63;;;4.70;;
75506;SDS011;64086;43.220;27.878;2022-11-15T06:57:03;7.97;;;5.00;;
75506;SDS011;64086;43.220;27.878;2022-11-15T06:59:29;8.45;;;5.38;;
75506;SDS011;64086;43.220;27.878;2022-11-15T07:01:54;8.68;;;5.68;;
75506;SDS011;64086;43.220;27.878;2022-11-15T07:04:20;9.18;;;5.15;;
75506;SDS011;64086;43.220;27.878;2022-11-15T07:06:46;9.23;;;5.75;;
75506;SDS011;64086;43.220;27.878;2022-11-15T07:09:12;11.35;;;5.57;;
75506;SDS011;64086;43.220;27.878;2022-11-15T07:11:38;10.43;;;5.53;;
75506;SDS011;64086;43.220;27.878;2022-11-15T07:14:03;9.63;;;5.75;;
75506;SDS011;64086;43.220;27.878;2022-11-15T07:16:28;8.52;;;5.78;;
75506;SDS011;64086;43.220;27.878;2022-11-15T07:18:54;7.95;;;5.30;;
75506;SDS011;64086;43.220;27.878;2022-11-15T07:21:19;9.90;;;5.75;;
75506;SDS011;64086;43.220;27.878;2022-11-15T07:23:45;9.07;;;6.20;;
75506;SDS011;64086;43.220;27.878;2022-11-15T07:26:10;9.00;;;6.13;;
75506;SDS011;64086;43.220;27.878;2022-11-15T07:28:35;9.35;;;6.20;;
75506;SDS011;64086;43.220;27.878;2022-11-15T07:31:02;9.50;;;6.13;;
75506;SDS011;64086;43.220;27.878;2022-11-15T07:33:28;10.77;;;6.03;;
75506;SDS011;64086;43.220;27.878;2022-11-15T07:35:53;7.93;;;5.47;;
75506;SDS011;64086;43.220;27.878;2022-11-15T07:38:19;8.20;;;5.60;;
75506;SDS011;64086;43.220;27.878;2022-11-15T07:40:44;10.00;;;5.40;;
75506;SDS011;64086;43.220;27.878;2022-11-15T07:43:10;9.38;;;5.82;;
75506;SDS011;64086;43.220;27.878;2022-11-15T07:45:39;8.32;;;5.65;;
75506;SDS011;64086;43.220;27.878;2022-11-15T07:48:06;7.35;;;5.10;;
75506;SDS011;64086;43.220;27.878;2022-11-15T07:50:31;9.13;;;5.80;;
75506;SDS011;64086;43.220;27.878;2022-11-15T07:52:58;7.80;;;5.18;;
75506;SDS011;64086;43.220;27.878;2022-11-15T07:55:24;9.65;;;5.22;;
75506;SDS011;64086;43.220;27.878;2022-11-15T07:57:50;10.07;;;5.63;;
75506;SDS011;64086;43.220;27.878;2022-11-15T08:00:16;6.88;;;5.10;;
75506;SDS011;64086;43.220;27.878;2022-11-15T08:02:42;9.95;;;6.78;;
75506;SDS011;64086;43.220;27.878;2022-11-15T08:05:07;10.10;;;6.10;;
75506;SDS011;64086;43.220;27.878;2022-11-15T08:07:33;9.68;;;5.72;;
75506;SDS011;64086;43.220;27.878;2022-11-15T08:09:58;8.93;;;5.32;;
75506;SDS011;64086;43.220;27.878;2022-11-15T08:12:26;9.55;;;6.60;;
75506;SDS011;64086;43.220;27.878;2022-11-15T08:14:53;9.88;;;5.63;;
75506;SDS011;64086;43.220;27.878;2022-11-15T08:17:19;9.70;;;5.88;;
75506;SDS011;64086;43.220;27.878;2022-11-15T08:19:45;9.27;;;5.55;;
75506;SDS011;64086;43.220;27.878;2022-11-15T08:22:10;8.80;;;4.93;;
75506;SDS011;64086;43.220;27.878;2022-11-15T08:24:36;8.45;;;6.05;;
75506;SDS011;64086;43.220;27.878;2022-11-15T08:27:01;9.55;;;5.63;;
75506;SDS011;64086;43.220;27.878;2022-11-15T08:29:27;9.13;;;5.57;;
75506;SDS011;64086;43.220;27.878;2022-11-15T08:31:54;10.23;;;5.60;;
75506;SDS011;64086;43.220;27.878;2022-11-15T08:34:20;7.93;;;4.75;;
75506;SDS011;64086;43.220;27.878;2022-11-15T08:36:46;8.57;;;5.15;;
75506;SDS011;64086;43.220;27.878;2022-11-15T08:39:12;9.13;;;4.78;;
75506;SDS011;64086;43.220;27.878;2022-11-15T08:41:37;8.30;;;5.22;;
75506;SDS011;64086;43.220;27.878;2022-11-15T08:44:03;8.40;;;5.50;;
75506;SDS011;64086;43.220;27.878;2022-11-15T08:46:29;8.88;;;5.00;;
75506;SDS011;64086;43.220;27.878;2022-11-15T08:48:54;12.20;;;5.72;;
75506;SDS011;64086;43.220;27.878;2022-11-15T08:51:20;6.95;;;5.07;;
75506;SDS011;64086;43.220;27.878;2022-11-15T08:53:45;6.88;;;4.72;;
75506;SDS011;64086;43.220;27.878;2022-11-15T08:56:11;8.93;;;5.25;;
75506;SDS011;64086;43.220;27.878;2022-11-15T08:58:38;9.35;;;5.25;;
75506;SDS011;64086;43.220;27.878;2022-11-15T09:01:04;7.63;;;4.50;;
75506;SDS011;64086;43.220;27.878;2022-11-15T09:03:30;8.23;;;5.15;;
75506;SDS011;64086;43.220;27.878;2022-11-15T09:05:56;7.57;;;5.15;;
75506;SDS011;64086;43.220;27.878;2022-11-15T09:08:23;9.93;;;5.57;;
75506;SDS011;64086;43.220;27.878;2022-11-15T09:10:48;7.63;;;5.28;;
75506;SDS011;64086;43.220;27.878;2022-11-15T09:13:14;8.52;;;5.22;;
75506;SDS011;64086;43.220;27.878;2022-11-15T09:15:40;8.77;;;5.10;;
75506;SDS011;64086;43.220;27.878;2022-11-15T09:18:05;7.68;;;4.78;;
75506;SDS011;64086;43.220;27.878;2022-11-15T09:20:30;8.52;;;5.00;;
75506;SDS011;64086;43.220;27.878;2022-11-15T09:23:00;7.10;;;4.70;;
75506;SDS011;64086;43.220;27.878;2022-11-15T09:25:26;8.88;;;4.53;;
75506;SDS011;64086;43.220;27.878;2022-11-15T09:27:51;7.15;;;4.78;;
75506;SDS011;64086;43.220;27.878;2022-11-15T09:30:17;6.57;;;4.70;;
75506;SDS011;64086;43.220;27.878;2022-11-15T09:32:42;7.78;;;4.97;;
75506;SDS011;64086;43.220;27.878;2022-11-15T09:35:08;7.13;;;4.63;;
75506;SDS011;64086;43.220;27.878;2022-11-15T09:37:33;7.28;;;4.45;;
75506;SDS011;64086;43.220;27.878;2022-11-15T09:39:59;7.97;;;4.97;;
75506;SDS011;64086;43.220;27.878;2022-11-15T09:45:03;6.28;;;4.65;;
75506;SDS011;64086;43.220;27.878;2022-11-15T09:50:35;6.65;;;4.07;;
75506;SDS011;64086;43.220;27.878;2022-11-15T09:53:03;6.10;;;4.53;;
75506;SDS011;64086;43.220;27.878;2022-11-15T09:55:36;6.40;;;4.20;;
75506;SDS011;64086;43.220;27.878;2022-11-15T10:04:02;7.32;;;4.70;;
75506;SDS011;64086;43.220;27.878;2022-11-15T10:06:27;5.97;;;4.30;;
75506;SDS011;64086;43.220;27.878;2022-11-15T10:09:01;6.80;;;4.45;;
75506;SDS011;64086;43.220;27.878;2022-11-15T10:11:31;6.85;;;4.53;;
75506;SDS011;64086;43.220;27.878;2022-11-15T10:13:59;9.93;;;5.68;;
75506;SDS011;64086;43.220;27.878;2022-11-15T10:22:00;6.88;;;4.78;;
75506;SDS011;64086;43.220;27.878;2022-11-15T10:24:37;6.40;;;4.45;;
75506;SDS011;64086;43.220;27.878;2022-11-15T10:27:16;7.20;;;4.55;;
75506;SDS011;64086;43.220;27.878;2022-11-15T10:29:46;6.70;;;4.10;;
75506;SDS011;64086;43.220;27.878;2022-11-15T10:32:13;6.80;;;4.38;;
75506;SDS011;64086;43.220;27.878;2022-11-15T10:34:40;6.65;;;4.15;;
75506;SDS011;64086;43.220;27.878;2022-11-15T10:37:06;5.47;;;3.97;;
75506;SDS011;64086;43.220;27.878;2022-11-15T10:39:32;6.90;;;4.20;;
75506;SDS011;64086;43.220;27.878;2022-11-15T10:42:16;6.90;;;4.18;;
75506;SDS011;64086;43.220;27.878;2022-11-15T10:44:52;5.03;;;3.58;;
75506;SDS011;64086;43.220;27.878;2022-11-15T10:47:25;7.00;;;4.78;;
75506;SDS011;64086;43.220;27.878;2022-11-15T10:49:56;5.40;;;4.30;;
75506;SDS011;64086;43.220;27.878;2022-11-15T10:52:22;7.18;;;4.20;;
75506;SDS011;64086;43.220;27.878;2022-11-15T10:57:20;6.35;;;4.22;;
75506;SDS011;64086;43.220;27.878;2022-11-15T10:59:49;5.82;;;4.00;;
75506;SDS011;64086;43.220;27.878;2022-11-15T11:02:25;5.63;;;4.00;;
75506;SDS011;64086;43.220;27.878;2022-11-15T11:04:52;5.30;;;3.58;;
75506;SDS011;64086;43.220;27.878;2022-11-15T11:07:22;6.78;;;4.40;;
75506;SDS011;64086;43.220;27.878;2022-11-15T11:10:00;6.72;;;3.67;;
75506;SDS011;64086;43.220;27.878;2022-11-15T11:12:31;8.20;;;3.80;;
75506;SDS011;64086;43.220;27.878;2022-11-15T11:15:00;5.28;;;3.95;;
75506;SDS011;64086;43.220;27.878;2022-11-15T11:20:23;7.97;;;4.00;;
75506;SDS011;64086;43.220;27.878;2022-11-15T11:33:34;6.95;;;4.28;;
75506;SDS011;64086;43.220;27.878;2022-11-15T11:38:53;6.18;;;4.75;;
75506;SDS011;64086;43.220;27.878;2022-11-15T11:47:51;5.60;;;3.97;;
75506;SDS011;64086;43.220;27.878;2022-11-15T11:50:21;7.47;;;4.32;;
75506;SDS011;64086;43.220;27.878;2022-11-15T11:55:39;4.85;;;3.53;;
75506;SDS011;64086;43.220;27.878;2022-11-15T12:03:33;5.43;;;4.00;;
75506;SDS011;64086;43.220;27.878;2022-11-15T12:06:31;6.78;;;4.35;;
75506;SDS011;64086;43.220;27.878;2022-11-15T12:14:40;6.53;;;4.50;;
75506;SDS011;64086;43.220;27.878;2022-11-15T12:17:09;12.48;;;4.85;;
75506;SDS011;64086;43.220;27.878;2022-11-15T12:19:35;8.13;;;5.38;;
75506;SDS011;64086;43.220;27.878;2022-11-15T12:22:06;7.65;;;4.28;;
75506;SDS011;64086;43.220;27.878;2022-11-15T12:29:43;7.40;;;3.92;;
75506;SDS011;64086;43.220;27.878;2022-11-15T12:32:19;5.60;;;3.45;;
75506;SDS011;64086;43.220;27.878;2022-11-15T12:34:49;6.40;;;4.22;;
75506;SDS011;64086;43.220;27.878;2022-11-15T12:45:26;10.30;;;6.20;;
75506;SDS011;64086;43.220;27.878;2022-11-15T12:47:53;7.13;;;4.80;;
75506;SDS011;64086;43.220;27.878;2022-11-15T12:50:52;8.70;;;5.95;;
75506;SDS011;64086;43.220;27.878;2022-11-15T12:58:43;8.80;;;7.43;;
75506;SDS011;64086;43.220;27.878;2022-11-15T13:06:45;8.73;;;6.90;;
75506;SDS011;64086;43.220;27.878;2022-11-15T13:11:55;8.77;;;6.53;;
75506;SDS011;64086;43.220;27.878;2022-11-15T13:22:39;9.65;;;7.40;;
75506;SDS011;64086;43.220;27.878;2022-11-15T13:28:02;11.10;;;8.68;;
75506;SDS011;64086;43.220;27.878;2022-11-15T13:30:35;14.23;;;10.23;;
75506;SDS011;64086;43.220;27.878;2022-11-15T13:33:08;12.73;;;9.93;;
75506;SDS011;64086;43.220;27.878;2022-11-15T13:35:39;10.57;;;8.80;;
75506;SDS011;64086;43.220;27.878;2022-11-15T13:38:05;9.40;;;8.38;;
75506;SDS011;64086;43.220;27.878;2022-11-15T13:40:35;11.75;;;7.63;;
75506;SDS011;64086;43.220;27.878;2022-11-15T13:46:22;11.45;;;7.45;;
75506;SDS011;64086;43.220;27.878;2022-11-15T13:49:02;11.85;;;8.73;;
75506;SDS011;64086;43.220;27.878;2022-11-15T13:51:50;13.82;;;9.27;;
75506;SDS011;64086;43.220;27.878;2022-11-15T13:54:26;12.25;;;8.25;;
75506;SDS011;64086;43.220;27.878;2022-11-15T13:59:26;12.55;;;8.55;;
75506;SDS011;64086;43.220;27.878;2022-11-15T14:01:54;7.80;;;6.13;;
75506;SDS011;64086;43.220;27.878;2022-11-15T14:04:21;8.65;;;5.70;;
75506;SDS011;64086;43.220;27.878;2022-11-15T14:06:52;9.13;;;5.93;;
75506;SDS011;64086;43.220;27.878;2022-11-15T14:11:51;6.88;;;4.63;;
75506;SDS011;64086;43.220;27.878;2022-11-15T14:14:19;8.63;;;5.75;;
75506;SDS011;64086;43.220;27.878;2022-11-15T14:16:50;9.00;;;5.38;;
75506;SDS011;64086;43.220;27.878;2022-11-15T14:25:05;5.82;;;3.80;;
75506;SDS011;64086;43.220;27.878;2022-11-15T14:28:07;5.50;;;4.00;;
75506;SDS011;64086;43.220;27.878;2022-11-15T14:30:40;6.45;;;4.50;;
75506;SDS011;64086;43.220;27.878;2022-11-15T14:33:21;7.43;;;5.30;;
75506;SDS011;64086;43.220;27.878;2022-11-15T14:35:48;7.70;;;4.45;;
75506;SDS011;64086;43.220;27.878;2022-11-15T14:38:15;6.43;;;4.80;;
75506;SDS011;64086;43.220;27.878;2022-11-15T14:40:40;8.40;;;5.00;;
75506;SDS011;64086;43.220;27.878;2022-11-15T14:43:10;10.50;;;5.25;;
75506;SDS011;64086;43.220;27.878;2022-11-15T14:45:36;7.13;;;4.90;;
75506;SDS011;64086;43.220;27.878;2022-11-15T14:48:02;11.32;;;5.88;;
75506;SDS011;64086;43.220;27.878;2022-11-15T14:50:28;8.13;;;5.57;;
75506;SDS011;64086;43.220;27.878;2022-11-15T14:52:53;9.95;;;6.10;;
75506;SDS011;64086;43.220;27.878;2022-11-15T14:57:53;8.48;;;6.55;;
75506;SDS011;64086;43.220;27.878;2022-11-15T15:00:19;8.70;;;6.50;;
75506;SDS011;64086;43.220;27.878;2022-11-15T15:02:45;12.85;;;8.15;;
75506;SDS011;64086;43.220;27.878;2022-11-15T15:07:44;8.90;;;7.18;;
75506;SDS011;64086;43.220;27.878;2022-11-15T15:10:11;11.57;;;8.93;;
75506;SDS011;64086;43.220;27.878;2022-11-15T15:12:37;11.15;;;8.45;;
75506;SDS011;64086;43.220;27.878;2022-11-15T15:15:02;9.07;;;6.68;;
75506;SDS011;64086;43.220;27.878;2022-11-15T15:17:28;11.70;;;5.72;;
75506;SDS011;64086;43.220;27.878;2022-11-15T15:19:53;9.20;;;6.70;;
75506;SDS011;64086;43.220;27.878;2022-11-15T15:22:19;10.48;;;7.38;;
75506;SDS011;64086;43.220;27.878;2022-11-15T15:24:48;12.45;;;8.85;;
75506;SDS011;64086;43.220;27.878;2022-11-15T15:27:13;10.98;;;7.68;;
75506;SDS011;64086;43.220;27.878;2022-11-15T15:29:39;11.10;;;7.25;;
75506;SDS011;64086;43.220;27.878;2022-11-15T15:32:05;9.57;;;7.15;;
75506;SDS011;64086;43.220;27.878;2022-11-15T15:34:31;9.15;;;6.57;;
75506;SDS011;64086;43.220;27.878;2022-11-15T15:39:55;8.48;;;6.13;;
75506;SDS011;64086;43.220;27.878;2022-11-15T15:42:21;9.65;;;6.72;;
75506;SDS011;64086;43.220;27.878;2022-11-15T15:44:48;9.63;;;7.15;;
75506;SDS011;64086;43.220;27.878;2022-11-15T15:47:18;10.43;;;7.65;;
75506;SDS011;64086;43.220;27.878;2022-11-15T15:49:45;9.50;;;7.47;;
75506;SDS011;64086;43.220;27.878;2022-11-15T15:52:11;9.40;;;7.60;;
75506;SDS011;64086;43.220;27.878;2022-11-15T15:54:36;10.30;;;7.22;;
75506;SDS011;64086;43.220;27.878;2022-11-15T15:57:02;9.10;;;7.32;;
75506;SDS011;64086;43.220;27.878;2022-11-15T15:59:28;10.65;;;7.43;;
75506;SDS011;64086;43.220;27.878;2022-11-15T16:01:53;12.85;;;8.52;;
75506;SDS011;64086;43.220;27.878;2022-11-15T16:04:19;12.18;;;9.15;;
75506;SDS011;64086;43.220;27.878;2022-11-15T16:06:44;11.65;;;8.75;;
75506;SDS011;64086;43.220;27.878;2022-11-15T16:09:13;9.95;;;7.97;;
75506;SDS011;64086;43.220;27.878;2022-11-15T16:11:40;11.02;;;9.13;;
75506;SDS011;64086;43.220;27.878;2022-11-15T16:14:06;13.07;;;10.32;;
75506;SDS011;64086;43.220;27.878;2022-11-15T16:16:32;12.35;;;8.85;;
75506;SDS011;64086;43.220;27.878;2022-11-15T16:18:59;13.55;;;8.95;;
75506;SDS011;64086;43.220;27.878;2022-11-15T16:21:25;11.30;;;8.90;;
75506;SDS011;64086;43.220;27.878;2022-11-15T16:23:51;12.55;;;9.50;;
75506;SDS011;64086;43.220;27.878;2022-11-15T16:26:21;12.00;;;8.85;;
75506;SDS011;64086;43.220;27.878;2022-11-15T16:28:47;14.93;;;10.73;;
75506;SDS011;64086;43.220;27.878;2022-11-15T16:31:13;20.58;;;16.23;;
75506;SDS011;64086;43.220;27.878;2022-11-15T16:33:39;20.63;;;16.80;;
75506;SDS011;64086;43.220;27.878;2022-11-15T16:36:05;18.92;;;14.98;;
75506;SDS011;64086;43.220;27.878;2022-11-15T16:38:37;16.60;;;14.45;;
75506;SDS011;64086;43.220;27.878;2022-11-15T16:41:04;19.15;;;15.88;;
75506;SDS011;64086;43.220;27.878;2022-11-15T16:43:29;19.40;;;16.90;;
75506;SDS011;64086;43.220;27.878;2022-11-15T16:45:55;22.00;;;18.45;;
75506;SDS011;64086;43.220;27.878;2022-11-15T16:48:24;21.42;;;17.15;;
75506;SDS011;64086;43.220;27.878;2022-11-15T16:50:57;25.90;;;18.02;;
75506;SDS011;64086;43.220;27.878;2022-11-15T16:53:23;34.05;;;25.77;;
75506;SDS011;64086;43.220;27.878;2022-11-15T16:55:49;27.75;;;22.23;;
75506;SDS011;64086;43.220;27.878;2022-11-15T16:58:15;24.17;;;21.25;;
75506;SDS011;64086;43.220;27.878;2022-11-15T17:00:40;24.77;;;20.35;;